Time;durP1;ratioP1;P1;durP2;ratioP2;P2;SDS_P1;SDS_P2;PMS_P1;PMS_P2;Temp;Humidity;BMP_temperature;BMP_pressure;BME280_temperature;BME280_humidity;BME280_pressure;Samples;Min_cycle;Max_cycle;Signal;HPM_P1;HPM_P2
2023/10/03 00:00:34;;;;;;;8.07;2.25;;;;;;;10.59;100.00;100805.41;5057497;28;20024;-73
2023/10/03 00:03:01;;;;;;;8.18;2.35;;;;;;;10.59;100.00;100813.47;5057730;28;20032;-73
2023/10/03 00:05:30;;;;;;;7.78;2.38;;;;;;;10.51;100.00;100808.13;5040971;28;20048;-73
2023/10/03 00:07:57;;;;;;;6.53;2.00;;;;;;;10.38;100.00;100805.16;5057756;28;20048;-73
2023/10/03 00:10:23;;;;;;;11.65;2.25;;;;;;;10.33;100.00;100808.38;5057123;28;20032;-73
2023/10/03 00:12:51;;;;;;;8.77;2.22;;;;;;;10.31;100.00;100805.00;5040179;28;20025;-73
2023/10/03 00:15:21;;;;;;;10.13;2.63;;;;;;;10.32;100.00;100809.38;5040664;28;20056;-73
2023/10/03 00:17:47;;;;;;;10.13;2.30;;;;;;;10.29;100.00;100810.56;5057214;28;20033;-73
2023/10/03 00:20:16;;;;;;;13.00;2.50;;;;;;;10.19;100.00;100803.66;5040360;28;20044;-73
2023/10/03 00:22:45;;;;;;;14.98;2.80;;;;;;;10.08;100.00;100811.09;5040892;28;20110;-73
2023/10/03 00:25:17;;;;;;;9.80;2.22;;;;;;;9.94;100.00;100805.56;5040688;28;20036;-73
2023/10/03 00:27:51;;;;;;;11.82;2.50;;;;;;;9.83;100.00;100812.97;5073911;28;20039;-73
2023/10/03 00:30:23;;;;;;;8.52;2.53;;;;;;;9.83;100.00;100820.19;5056935;28;20043;-73
2023/10/03 00:32:51;;;;;;;12.18;1.85;;;;;;;9.78;100.00;100809.94;5041919;28;20058;-73
2023/10/03 00:35:19;;;;;;;13.85;2.20;;;;;;;9.67;100.00;100813.81;5073152;28;20032;-73
2023/10/03 00:37:46;;;;;;;12.18;1.88;;;;;;;9.60;100.00;100822.72;5056823;28;20113;-72
2023/10/03 00:40:27;;;;;;;9.48;2.08;;;;;;;9.61;100.00;100821.72;5057089;28;20093;-73
2023/10/03 00:42:57;;;;;;;13.32;2.47;;;;;;;9.58;100.00;100817.53;5073073;28;20028;-73
2023/10/03 00:45:31;;;;;;;9.80;1.73;;;;;;;9.54;100.00;100821.53;5040014;28;20383;-73
2023/10/03 00:48:01;;;;;;;7.60;2.17;;;;;;;9.43;100.00;100820.03;5040198;28;20128;-72
2023/10/03 00:50:31;;;;;;;13.40;2.10;;;;;;;9.33;100.00;100818.50;5072894;28;20494;-74
2023/10/03 00:53:13;;;;;;;7.93;1.80;;;;;;;9.25;100.00;100811.28;5056383;28;20025;-73
2023/10/03 00:55:43;;;;;;;9.68;2.00;;;;;;;9.22;100.00;100823.19;5041453;28;20109;-73
2023/10/03 01:00:41;;;;;;;12.15;2.00;;;;;;;9.17;100.00;100820.16;5056787;28;20028;-72
2023/10/03 01:03:31;;;;;;;10.38;1.83;;;;;;;9.12;100.00;100824.34;5040085;28;20111;-73
2023/10/03 01:05:58;;;;;;;12.98;1.90;;;;;;;9.02;100.00;100824.47;5056498;28;20028;-73
2023/10/03 01:08:25;;;;;;;8.00;1.85;;;;;;;8.94;100.00;100830.66;5056433;28;20045;-73
2023/10/03 01:10:51;;;;;;;16.55;2.40;;;;;;;8.92;100.00;100826.50;5039706;28;20024;-73
2023/10/03 01:13:19;;;;;;;11.07;2.28;;;;;;;8.92;100.00;100834.53;5039723;28;20036;-73
2023/10/03 01:15:49;;;;;;;7.68;1.80;;;;;;;8.87;100.00;100839.56;5039391;28;20044;-73
2023/10/03 01:18:18;;;;;;;8.70;1.80;;;;;;;8.79;100.00;100835.84;5039779;28;20028;-73
2023/10/03 01:20:48;;;;;;;8.65;2.58;;;;;;;8.78;100.00;100839.50;5039913;28;20036;-72
2023/10/03 01:23:16;;;;;;;9.82;1.85;;;;;;;8.76;100.00;100838.00;5039813;28;20051;-73
2023/10/03 01:25:43;;;;;;;11.90;2.92;;;;;;;8.80;100.00;100842.03;5072545;28;20112;-73
2023/10/03 01:28:12;;;;;;;13.27;2.15;;;;;;;8.83;100.00;100838.19;5023409;28;20094;-72
2023/10/03 01:30:40;;;;;;;13.40;2.97;;;;;;;8.82;100.00;100842.72;5055957;28;20459;-73
2023/10/03 01:33:07;;;;;;;8.40;1.88;;;;;;;8.80;100.00;100834.81;5039466;28;20471;-73
2023/10/03 01:35:33;;;;;;;12.48;2.63;;;;;;;8.74;100.00;100848.03;5055564;28;20033;-73
2023/10/03 01:37:59;;;;;;;11.90;2.47;;;;;;;8.79;100.00;100843.03;5039447;28;20523;-73
2023/10/03 01:40:26;;;;;;;13.88;2.08;;;;;;;8.84;100.00;100838.03;5039254;28;20131;-73
2023/10/03 01:42:52;;;;;;;10.38;2.00;;;;;;;8.84;100.00;100845.22;5055638;28;20467;-73
2023/10/03 01:45:21;;;;;;;10.40;1.80;;;;;;;8.82;100.00;100842.72;5039231;28;20471;-72
2023/10/03 01:47:49;;;;;;;8.80;2.03;;;;;;;8.81;100.00;100851.75;5055691;28;20410;-72
2023/10/03 01:50:17;;;;;;;7.28;1.98;;;;;;;8.82;100.00;100852.59;5056042;28;20036;-72
2023/10/03 01:52:43;;;;;;;11.82;1.95;;;;;;;8.88;100.00;100850.09;5039261;28;20055;-72
2023/10/03 01:55:12;;;;;;;8.75;1.67;;;;;;;8.96;100.00;100855.47;5072481;28;20451;-72
2023/10/03 01:57:41;;;;;;;10.25;1.90;;;;;;;9.09;100.00;100855.03;5055919;28;20046;-72
2023/10/03 02:00:20;;;;;;;6.97;1.60;;;;;;;9.13;100.00;100852.84;5055839;28;20090;-72
2023/10/03 02:02:49;;;;;;;10.80;2.13;;;;;;;9.06;100.00;100846.47;5057202;28;20123;-72
2023/10/03 02:05:15;;;;;;;15.48;2.13;;;;;;;9.02;100.00;100848.63;5039186;28;20040;-72
2023/10/03 02:07:42;;;;;;;9.27;1.92;;;;;;;9.02;100.00;100846.81;5038854;28;20032;-72
2023/10/03 02:10:12;;;;;;;14.35;2.15;;;;;;;8.97;100.00;100853.63;5055745;28;20101;-73
2023/10/03 02:12:40;;;;;;;9.02;2.28;;;;;;;8.87;100.00;100844.91;5072013;28;20506;-72
2023/10/03 02:15:09;;;;;;;9.68;2.00;;;;;;;8.75;100.00;100841.66;5038640;28;20049;-72
2023/10/03 02:17:35;;;;;;;11.70;2.30;;;;;;;8.66;100.00;100848.00;5055428;28;20060;-73
2023/10/03 02:20:08;;;;;;;11.35;2.25;;;;;;;8.55;100.00;100841.09;5055580;28;20471;-72
2023/10/03 02:22:34;;;;;;;9.27;1.90;;;;;;;8.49;100.00;100845.22;5056515;28;20032;-73
2023/10/03 02:25:01;;;;;;;8.65;1.73;;;;;;;8.44;100.00;100852.06;5038680;28;20043;-72
2023/10/03 02:27:27;;;;;;;9.20;1.67;;;;;;;8.38;100.00;100846.31;5038980;28;20036;-72
2023/10/03 02:29:52;;;;;;;9.70;2.00;;;;;;;8.28;100.00;100845.63;5038901;28;20039;-72
2023/10/03 02:32:18;;;;;;;13.82;1.83;;;;;;;8.19;100.00;100849.25;5038741;28;20039;-73
2023/10/03 02:34:44;;;;;;;17.10;2.03;;;;;;;8.11;100.00;100843.84;5038897;28;20094;-72
2023/10/03 02:37:12;;;;;;;9.85;1.90;;;;;;;8.08;100.00;100849.50;5074044;28;20028;-72
2023/10/03 02:39:39;;;;;;;11.57;1.77;;;;;;;8.06;100.00;100844.28;5042895;28;20043;-72
2023/10/03 02:42:06;;;;;;;10.73;1.70;;;;;;;8.03;100.00;100846.47;5042670;28;20463;-72
2023/10/03 02:44:32;;;;;;;11.35;1.52;;;;;;;8.12;100.00;100845.50;5042239;28;20485;-72
2023/10/03 02:46:58;;;;;;;11.30;1.95;;;;;;;8.15;100.00;100847.88;5042638;28;20039;-73
2023/10/03 02:49:24;;;;;;;6.65;1.50;;;;;;;8.17;100.00;100853.91;5042468;28;20036;-72
2023/10/03 02:51:50;;;;;;;11.50;1.98;;;;;;;8.20;100.00;100852.75;5058978;28;20067;-74
2023/10/03 02:54:16;;;;;;;9.15;1.58;;;;;;;8.26;100.00;100849.47;5058522;28;20109;-74
2023/10/03 02:56:42;;;;;;;8.02;1.63;;;;;;;8.26;100.00;100857.50;5042213;28;20489;-73
2023/10/03 02:59:08;;;;;;;11.60;2.05;;;;;;;8.19;100.00;100859.94;5074943;28;20024;-74
2023/10/03 03:01:35;;;;;;;14.13;1.67;;;;;;;8.08;100.00;100854.88;5042202;28;20055;-74
2023/10/03 03:04:03;;;;;;;13.38;2.40;;;;;;;7.95;100.00;100849.09;5075118;28;20028;-74
2023/10/03 03:06:31;;;;;;;9.77;1.70;;;;;;;7.87;100.00;100856.03;5074953;28;20529;-74
2023/10/03 03:08:56;;;;;;;7.85;1.80;;;;;;;7.82;100.00;100855.66;5059158;28;20032;-74
2023/10/03 03:11:22;;;;;;;9.95;1.77;;;;;;;7.84;100.00;100859.03;5042090;28;20553;-74
2023/10/03 03:13:49;;;;;;;12.88;1.60;;;;;;;7.83;100.00;100857.38;5041912;28;20068;-74
2023/10/03 03:16:15;;;;;;;11.90;1.80;;;;;;;7.87;100.00;100864.06;5041986;28;20087;-74
2023/10/03 03:18:41;;;;;;;12.13;1.50;;;;;;;7.88;100.00;100857.72;5041973;28;20028;-75
2023/10/03 03:21:15;;;;;;;8.93;1.42;;;;;;;7.97;100.00;100865.84;5041738;28;20043;-74
2023/10/03 03:23:55;;;;;;;10.98;2.33;;;;;;;8.19;100.00;100865.31;5058280;28;20040;-75
2023/10/03 03:26:21;;;;;;;10.90;1.80;;;;;;;8.45;100.00;100869.84;5043842;28;20070;-74
2023/10/03 03:28:49;;;;;;;14.02;1.90;;;;;;;8.57;100.00;100868.56;5041552;28;20093;-74
2023/10/03 03:31:22;;;;;;;14.02;1.63;;;;;;;8.59;100.00;100864.72;5041618;28;20435;-74
2023/10/03 03:33:51;;;;;;;15.60;2.10;;;;;;;8.53;100.00;100865.38;5059055;28;20032;-73
2023/10/03 03:36:19;;;;;;;11.27;2.25;;;;;;;8.46;100.00;100871.53;5058303;28;20044;-74
2023/10/03 03:38:45;;;;;;;5.60;1.52;;;;;;;8.41;100.00;100871.16;5041374;28;20386;-74
2023/10/03 03:41:12;;;;;;;7.53;1.58;;;;;;;8.33;100.00;100861.19;5057553;28;20072;-74
2023/10/03 03:43:38;;;;;;;11.13;1.70;;;;;;;8.25;100.00;100862.00;5057955;28;20435;-74
2023/10/03 03:46:04;;;;;;;14.10;1.88;;;;;;;8.20;100.00;100863.47;5041344;28;20032;-74
2023/10/03 03:48:34;;;;;;;8.68;1.10;;;;;;;8.16;100.00;100862.94;5040187;28;20032;-74
2023/10/03 03:51:00;;;;;;;12.45;1.80;;;;;;;8.12;100.00;100864.25;5041867;28;20475;-73
2023/10/03 03:53:26;;;;;;;6.32;1.60;;;;;;;8.11;100.00;100873.28;5057763;28;20498;-74
2023/10/03 03:55:51;;;;;;;13.88;1.50;;;;;;;8.03;100.00;100870.56;5057459;28;20033;-74
2023/10/03 03:58:20;;;;;;;10.25;1.80;;;;;;;7.97;100.00;100873.88;5040864;28;20032;-75
2023/10/03 04:00:50;;;;;;;12.95;1.63;;;;;;;7.97;100.00;100873.88;5041273;28;20386;-73
2023/10/03 04:03:23;;;;;;;9.80;1.80;;;;;;;7.97;100.00;100868.53;5057805;28;20485;-74
2023/10/03 04:05:49;;;;;;;11.32;1.58;;;;;;;7.94;100.00;100869.66;5057846;28;20021;-74
2023/10/03 04:08:15;;;;;;;14.73;1.65;;;;;;;7.95;100.00;100878.53;5040996;28;20044;-75
2023/10/03 04:10:45;;;;;;;9.82;1.70;;;;;;;7.92;100.00;100880.53;5057714;28;20490;-74
2023/10/03 04:13:14;;;;;;;6.70;1.40;;;;;;;7.93;100.00;100874.16;5073730;28;20394;-74
2023/10/03 04:15:40;;;;;;;10.48;2.20;;;;;;;7.98;100.00;100876.38;5057494;28;20048;-74
2023/10/03 04:18:13;;;;;;;9.52;1.60;;;;;;;8.11;100.00;100881.31;5040772;28;20041;-73
2023/10/03 04:20:40;;;;;;;17.95;2.60;;;;;;;8.25;100.00;100877.22;5057727;28;20032;-74
2023/10/03 04:23:08;;;;;;;15.98;2.58;;;;;;;8.46;100.00;100880.41;5057419;28;20036;-74
2023/10/03 04:25:34;;;;;;;16.42;2.00;;;;;;;8.60;100.00;100881.66;5057092;28;20040;-74
2023/10/03 04:28:04;;;;;;;11.18;1.77;;;;;;;8.66;100.00;100881.00;5040641;28;20141;-74
2023/10/03 04:30:30;;;;;;;10.80;1.67;;;;;;;8.69;100.00;100882.53;5073553;28;20024;-73
2023/10/03 04:32:57;;;;;;;11.70;1.95;;;;;;;8.73;100.00;100887.44;5056865;28;20434;-74
2023/10/03 04:35:23;;;;;;;7.20;1.70;;;;;;;8.71;100.00;100880.53;5040559;28;20047;-74
2023/10/03 04:37:54;;;;;;;9.45;1.58;;;;;;;8.67;100.00;100873.81;5040396;28;20086;-74
2023/10/03 04:40:36;;;;;;;10.32;1.90;;;;;;;8.69;100.00;100883.38;5057595;28;20052;-74
2023/10/03 04:43:07;;;;;;;11.50;2.30;;;;;;;8.67;100.00;100889.91;5058978;28;20036;-74
2023/10/03 04:45:35;;;;;;;14.63;3.00;;;;;;;8.68;100.00;100887.06;5057174;28;20039;-74
2023/10/03 04:48:02;;;;;;;10.57;1.60;;;;;;;8.73;100.00;100897.28;5057126;28;20032;-74
2023/10/03 04:50:28;;;;;;;18.05;2.20;;;;;;;8.85;100.00;100896.00;5057408;28;20047;-74
2023/10/03 04:52:53;;;;;;;10.60;2.35;;;;;;;8.96;100.00;100900.25;5039930;28;20464;-74
2023/10/03 04:55:21;;;;;;;13.10;1.90;;;;;;;9.09;100.00;100910.53;5040080;28;20036;-73
2023/10/03 04:57:48;;;;;;;10.73;1.98;;;;;;;9.14;100.00;100916.25;5073227;28;20040;-73
2023/10/03 05:00:15;;;;;;;17.42;2.38;;;;;;;9.14;100.00;100910.88;5056069;28;20059;-73
2023/10/03 05:02:52;;;;;;;13.95;2.28;;;;;;;9.07;100.00;100918.72;5073097;28;20113;-73
2023/10/03 05:05:27;;;;;;;7.32;2.08;;;;;;;8.96;100.00;100913.66;5072831;28;20040;-74
2023/10/03 05:07:56;;;;;;;13.80;2.10;;;;;;;8.93;100.00;100913.97;5056562;28;20036;-73
2023/10/03 05:10:23;;;;;;;12.07;2.40;;;;;;;8.87;100.00;100920.00;5056495;28;20035;-73
2023/10/03 05:12:52;;;;;;;12.90;2.30;;;;;;;8.85;100.00;100922.00;5056305;28;20036;-74
2023/10/03 05:15:23;;;;;;;9.82;1.95;;;;;;;8.79;100.00;100924.31;5040364;28;20491;-73
2023/10/03 05:17:49;;;;;;;14.07;1.90;;;;;;;8.72;100.00;100923.25;5039974;28;20033;-73
2023/10/03 05:20:18;;;;;;;17.15;2.47;;;;;;;8.65;100.00;100927.56;5039687;28;20029;-74
2023/10/03 05:22:47;;;;;;;19.98;2.72;;;;;;;8.58;100.00;100930.06;5039505;28;20093;-73
2023/10/03 05:25:17;;;;;;;11.35;2.60;;;;;;;8.66;100.00;100937.31;5072637;28;20028;-73
2023/10/03 05:27:43;;;;;;;17.73;2.03;;;;;;;8.82;100.00;100938.41;5040013;28;20082;-73
2023/10/03 05:30:10;;;;;;;14.48;1.92;;;;;;;8.92;100.00;100936.44;5039561;28;20106;-74
2023/10/03 05:32:37;;;;;;;9.73;1.75;;;;;;;8.96;100.00;100935.94;5072572;28;20025;-73
2023/10/03 05:35:05;;;;;;;10.77;1.88;;;;;;;9.01;100.00;100932.78;5055682;28;20123;-73
2023/10/03 05:37:34;;;;;;;16.05;1.98;;;;;;;8.88;100.00;100935.91;5056126;28;20090;-73
2023/10/03 05:40:11;;;;;;;19.27;2.38;;;;;;;8.75;100.00;100938.19;5039370;28;20032;-74
2023/10/03 05:42:41;;;;;;;19.25;2.65;;;;;;;8.71;100.00;100948.41;5056665;28;20025;-73
2023/10/03 05:45:12;;;;;;;14.10;2.55;;;;;;;8.83;100.00;100940.06;5072133;28;20029;-73
2023/10/03 05:47:49;;;;;;;12.18;1.90;;;;;;;8.85;100.00;100946.13;5072589;28;20051;-73
2023/10/03 05:50:16;;;;;;;17.55;2.08;;;;;;;8.86;100.00;100945.94;5035900;28;20037;-73
2023/10/03 05:52:46;;;;;;;10.65;2.22;;;;;;;8.96;100.00;100951.19;5039159;28;20070;-73
2023/10/03 05:55:12;;;;;;;11.10;2.03;;;;;;;9.08;100.00;100954.44;5072541;28;20041;-73
2023/10/03 05:57:41;;;;;;;13.75;2.20;;;;;;;9.05;100.00;100939.50;5039220;28;20559;-73
2023/10/03 06:00:10;;;;;;;13.70;2.13;;;;;;;9.10;100.00;100947.88;5055971;28;20024;-74
2023/10/03 06:02:38;;;;;;;10.75;1.40;;;;;;;9.05;100.00;100950.25;5039135;28;20047;-74
2023/10/03 06:05:08;;;;;;;12.35;1.85;;;;;;;8.96;100.00;100959.25;5071719;28;20029;-74
2023/10/03 06:07:34;;;;;;;9.57;2.08;;;;;;;8.92;100.00;100956.06;5055553;28;20162;-73
2023/10/03 06:10:00;;;;;;;16.38;2.30;;;;;;;8.88;100.00;100964.56;5039106;28;20049;-73
2023/10/03 06:12:28;;;;;;;8.43;1.50;;;;;;;8.91;100.00;100961.56;5041841;28;20422;-73
2023/10/03 06:14:54;;;;;;;12.85;1.52;;;;;;;8.98;100.00;100973.34;5076230;28;20033;-73
2023/10/03 06:17:20;;;;;;;8.15;1.58;;;;;;;9.15;100.00;100971.56;5059708;28;20055;-74
2023/10/03 06:19:45;;;;;;;12.63;1.80;;;;;;;9.29;100.00;100975.47;5075496;28;20021;-73
2023/10/03 06:22:12;;;;;;;10.50;1.67;;;;;;;9.41;100.00;100977.69;5043109;28;20049;-74
2023/10/03 06:24:41;;;;;;;12.48;2.13;;;;;;;9.54;100.00;100987.13;5059331;28;20032;-74
2023/10/03 06:27:10;;;;;;;1.40;0.80;;;;;;;9.66;100.00;100991.22;5042825;28;20052;-74
2023/10/03 06:29:40;;;;;;;9.63;1.00;;;;;;;9.69;100.00;100983.66;5060016;28;20040;-73
2023/10/03 06:32:06;;;;;;;4.63;1.20;;;;;;;9.72;100.00;100982.47;5043237;28;20086;-74
2023/10/03 06:34:33;;;;;;;6.32;1.10;;;;;;;9.79;100.00;100993.38;5042774;28;20032;-74
2023/10/03 06:36:59;;;;;;;2.80;0.85;;;;;;;9.77;100.00;101000.78;5058787;28;20039;-73
2023/10/03 06:39:24;;;;;;;2.88;0.85;;;;;;;9.78;100.00;101000.63;5059256;28;20045;-74
2023/10/03 06:41:55;;;;;;;4.15;0.95;;;;;;;9.87;100.00;101010.38;5042152;28;20025;-73
2023/10/03 06:44:21;;;;;;;6.32;1.40;;;;;;;10.01;100.00;101010.75;5059270;28;20024;-73
2023/10/03 06:46:47;;;;;;;3.20;0.90;;;;;;;10.06;100.00;101011.91;5042098;28;20115;-73
2023/10/03 06:49:14;;;;;;;5.32;1.10;;;;;;;10.11;100.00;101016.81;5042075;28;20128;-74
2023/10/03 06:51:39;;;;;;;2.45;0.88;;;;;;;10.10;100.00;101023.16;5059149;28;20039;-73
2023/10/03 06:54:05;;;;;;;4.57;0.90;;;;;;;10.07;100.00;101031.56;5058536;28;20033;-74
2023/10/03 06:56:32;;;;;;;5.60;1.15;;;;;;;9.97;100.00;101031.69;5042138;28;20051;-74
2023/10/03 06:59:04;;;;;;;11.55;1.20;;;;;;;9.99;100.00;101037.75;5042466;28;20036;-73
2023/10/03 07:01:30;;;;;;;5.88;1.55;;;;;;;10.13;100.00;101034.44;5059033;28;20032;-74
2023/10/03 07:03:58;;;;;;;5.80;1.10;;;;;;;10.24;100.00;101045.84;5074780;28;20383;-73
2023/10/03 07:06:24;;;;;;;10.98;1.48;;;;;;;10.30;100.00;101054.13;5058854;28;20028;-74
2023/10/03 07:08:50;;;;;;;3.63;1.00;;;;;;;10.44;100.00;101054.47;5042020;28;20055;-73
2023/10/03 07:11:16;;;;;;;5.70;1.38;;;;;;;10.56;100.00;101059.34;5041969;28;20479;-73
2023/10/03 07:13:42;;;;;;;3.90;1.20;;;;;;;10.60;100.00;101069.75;5074836;28;20376;-74
2023/10/03 07:16:08;;;;;;;11.25;1.25;;;;;;;10.66;100.00;101079.84;5041939;28;20040;-73
2023/10/03 07:18:35;;;;;;;7.78;1.17;;;;;;;10.63;100.00;101070.25;5058709;28;20090;-74
2023/10/03 07:21:03;;;;;;;17.25;1.88;;;;;;;10.71;100.00;101083.69;5058088;28;20028;-74
2023/10/03 07:23:29;;;;;;;18.52;2.28;;;;;;;10.77;100.00;101087.59;5041741;28;20033;-73
2023/10/03 07:25:55;;;;;;;4.18;1.10;;;;;;;10.92;100.00;101091.25;5041721;28;20051;-73
2023/10/03 07:28:21;;;;;;;5.68;1.23;;;;;;;11.08;100.00;101098.47;5041747;28;20029;-74
2023/10/03 07:30:46;;;;;;;5.63;1.13;;;;;;;11.11;100.00;101099.97;5058270;28;20038;-73
2023/10/03 07:33:12;;;;;;;4.80;1.40;;;;;;;11.16;100.00;101109.19;5041482;28;20035;-74
2023/10/03 07:35:41;;;;;;;10.50;1.20;;;;;;;11.22;100.00;101113.09;5041567;28;20429;-74
2023/10/03 07:38:10;;;;;;;7.10;0.95;;;;;;;11.19;100.00;101110.72;5041855;28;20058;-74
2023/10/03 07:40:41;;;;;;;7.38;1.20;;;;;;;11.32;100.00;101118.25;5058625;28;20110;-74
2023/10/03 07:43:10;;;;;;;7.30;1.20;;;;;;;11.45;100.00;101119.41;5041357;28;20112;-73
2023/10/03 07:45:37;;;;;;;9.82;1.35;;;;;;;11.44;100.00;101120.41;5057688;28;20036;-74
2023/10/03 07:48:06;;;;;;;3.42;0.80;;;;;;;11.51;100.00;101128.66;5041345;28;20040;-74
2023/10/03 07:50:35;;;;;;;5.05;1.10;;;;;;;11.63;100.00;101129.94;5074190;28;20036;-74
2023/10/03 07:53:04;;;;;;;3.90;1.27;;;;;;;11.75;100.00;101138.50;5042228;28;20048;-73
2023/10/03 07:55:35;;;;;;;14.00;1.60;;;;;;;12.14;100.00;101134.97;5074443;28;20040;-73
2023/10/03 07:58:06;;;;;;;4.80;1.33;;;;;;;13.36;100.00;101140.47;5074422;28;20029;-73
2023/10/03 08:00:33;;;;;;;6.95;1.25;;;;;;;12.93;100.00;101145.56;5074100;28;20032;-73
2023/10/03 08:03:08;;;;;;;4.07;1.13;;;;;;;12.34;100.00;101166.91;5058115;28;20474;-73
2023/10/03 08:05:38;;;;;;;2.15;0.80;;;;;;;11.92;100.00;101170.81;5041875;28;20534;-73
2023/10/03 08:08:04;;;;;;;6.13;0.98;;;;;;;11.66;100.00;101170.00;5040697;28;20387;-73
2023/10/03 08:10:30;;;;;;;2.53;0.63;;;;;;;11.51;100.00;101165.50;5040916;28;20176;-73
2023/10/03 08:12:57;;;;;;;5.57;1.23;;;;;;;11.55;100.00;101169.53;5057382;28;20418;-73
2023/10/03 08:15:31;;;;;;;7.00;1.00;;;;;;;12.64;100.00;101178.66;5040588;28;20078;-74
2023/10/03 08:17:57;;;;;;;;;;;;;;;13.70;100.00;101180.44;5042439;28;20032;-73
2023/10/03 08:20:24;;;;;;;3.72;1.35;;;;;;;14.23;100.00;101177.59;5057475;28;20374;-73
2023/10/03 08:22:52;;;;;;;8.57;1.30;;;;;;;14.67;100.00;101185.63;5040817;28;20090;-73
2023/10/03 08:25:23;;;;;;;6.80;1.02;;;;;;;14.80;100.00;101186.81;5057158;28;20040;-73
2023/10/03 08:27:49;;;;;;;5.03;0.88;;;;;;;13.92;100.00;101197.63;5040572;28;20041;-73
2023/10/03 08:30:28;;;;;;;6.65;2.28;;;;;;;13.70;100.00;101206.63;5056556;28;20135;-73
2023/10/03 08:33:16;;;;;;;11.50;1.58;;;;;;;13.18;100.00;101219.09;5040440;28;20040;-73
2023/10/03 08:35:42;;;;;;;4.40;0.95;;;;;;;12.85;100.00;101213.09;5039959;28;20422;-74
2023/10/03 08:38:10;;;;;;;4.13;1.52;;;;;;;12.60;100.00;101224.06;5039270;28;20082;-73
2023/10/03 08:40:38;;;;;;;9.75;1.40;;;;;;;12.43;100.00;101222.47;5055431;28;20410;-73
2023/10/03 08:43:08;;;;;;;11.05;1.58;;;;;;;12.89;100.00;101206.34;5071985;28;20040;-73
2023/10/03 08:45:52;;;;;;;4.80;1.30;;;;;;;12.95;100.00;101232.59;5072759;28;20056;-74
2023/10/03 08:48:24;;;;;;;8.18;1.27;;;;;;;12.86;100.00;101229.13;5058055;28;20075;-74
2023/10/03 08:50:58;;;;;;;17.25;1.50;;;;;;;12.88;100.00;101235.16;5056611;28;20029;-73
2023/10/03 08:53:27;;;;;;;4.13;1.20;;;;;;;13.08;100.00;101240.94;5041356;28;20052;-74
2023/10/03 08:55:58;;;;;;;8.38;1.60;;;;;;;13.14;100.00;101253.72;5056924;28;20098;-73
2023/10/03 08:58:25;;;;;;;12.45;1.05;;;;;;;13.44;100.00;101253.81;5057005;28;20046;-73
2023/10/03 09:00:58;;;;;;;9.35;1.27;;;;;;;13.78;100.00;101250.63;5056645;28;20047;-73
2023/10/03 09:03:29;;;;;;;7.88;1.48;;;;;;;14.82;100.00;101260.53;5040841;28;20051;-73
2023/10/03 09:05:58;;;;;;;8.05;2.05;;;;;;;15.18;100.00;101263.19;5040298;28;20098;-73
2023/10/03 09:08:26;;;;;;;9.10;1.17;;;;;;;14.50;100.00;101262.63;5073100;28;20044;-73
2023/10/03 09:10:52;;;;;;;8.10;1.63;;;;;;;14.04;100.00;101262.84;5056657;28;20032;-73
2023/10/03 09:13:29;;;;;;;9.35;1.60;;;;;;;13.78;100.00;101263.31;5072585;28;20401;-74
2023/10/03 09:15:59;;;;;;;8.07;1.67;;;;;;;13.65;100.00;101274.75;5057008;28;20079;-73
2023/10/03 09:18:30;;;;;;;6.95;1.60;;;;;;;13.55;100.00;101280.41;5056279;28;20426;-74
2023/10/03 09:20:59;;;;;;;7.53;1.48;;;;;;;13.46;100.00;101275.25;5056324;28;20051;-73
2023/10/03 09:23:27;;;;;;;7.50;1.92;;;;;;;13.40;100.00;101283.06;5072721;28;20107;-73
2023/10/03 09:26:11;;;;;;;4.63;1.00;;;;;;;13.65;100.00;101290.94;5058732;28;20067;-73
2023/10/03 09:28:40;;;;;;;10.48;1.58;;;;;;;13.78;100.00;101287.63;5056050;28;20028;-73
2023/10/03 09:31:08;;;;;;;12.65;1.90;;;;;;;13.56;100.00;101294.75;5038755;28;20123;-74
2023/10/03 09:33:39;;;;;;;1.48;0.70;;;;;;;13.42;100.00;101304.50;5039121;28;20474;-73
2023/10/03 09:36:06;;;;;;;3.80;1.30;;;;;;;14.78;100.00;101308.81;5072312;28;20055;-73
2023/10/03 09:38:45;;;;;;;5.50;1.10;;;;;;;15.81;100.00;101315.69;5038660;28;20550;-74
2023/10/03 09:41:17;;;;;;;5.57;1.48;;;;;;;16.78;100.00;101316.72;5056046;28;20032;-72
2023/10/03 09:43:56;;;;;;;5.80;1.45;;;;;;;17.42;100.00;101328.16;5055096;28;20028;-72
2023/10/03 09:46:41;;;;;;;4.18;1.10;;;;;;;18.01;100.00;101330.06;5054757;28;20024;-72
2023/10/03 09:49:10;;;;;;;2.65;0.90;;;;;;;17.56;100.00;101330.66;5041939;28;20036;-72
2023/10/03 09:51:36;;;;;;;3.83;0.93;;;;;;;17.78;100.00;101334.03;5056188;28;20123;-72
2023/10/03 09:54:10;;;;;;;7.53;1.42;;;;;;;17.95;100.00;101337.19;5055657;28;20086;-71
2023/10/03 09:56:40;;;;;;;7.55;1.70;;;;;;;18.09;100.00;101339.91;5055891;28;20039;-72
2023/10/03 09:59:07;;;;;;;6.78;1.10;;;;;;;18.19;100.00;101338.41;5055481;28;20108;-71
2023/10/03 10:01:39;;;;;;;6.82;1.30;;;;;;;19.05;100.00;101336.47;5038731;28;20467;-73
2023/10/03 10:04:23;;;;;;;6.25;1.50;;;;;;;18.41;100.00;101349.88;5043322;28;20574;-73
2023/10/03 10:06:51;;;;;;;3.75;1.00;;;;;;;17.47;100.00;101348.25;5071798;28;20379;-72
2023/10/03 10:09:40;;;;;;;6.88;1.58;;;;;;;18.14;100.00;101351.00;5055648;28;20029;-73
2023/10/03 10:12:21;;;;;;;4.88;1.30;;;;;;;18.07;100.00;101358.31;5038183;28;20126;-72
2023/10/03 10:15:02;;;;;;;6.55;1.40;;;;;;;17.49;100.00;101365.19;5055871;28;20052;-72
2023/10/03 10:17:55;;;;;;;6.70;1.40;;;;;;;16.53;100.00;101362.50;5072160;28;20032;-73
2023/10/03 10:23:19;;;;;;;4.38;1.27;;;;;;;17.94;100.00;101380.91;5056675;28;20040;-72
2023/10/03 10:25:56;;;;;;;6.38;1.27;;;;;;;18.09;100.00;101373.38;5055085;28;20434;-74
2023/10/03 10:28:31;;;;;;;5.80;1.23;;;;;;;17.20;100.00;101381.81;5039031;28;20036;-73
2023/10/03 10:31:21;;;;;;;10.00;1.83;;;;;;;16.76;100.00;101380.38;5071295;28;20035;-73
2023/10/03 10:33:49;;;;;;;5.50;2.15;;;;;;;16.90;100.00;101380.25;5037705;28;20032;-72
2023/10/03 10:36:18;;;;;;;7.90;1.70;;;;;;;17.95;100.00;101391.59;5055864;28;20036;-72
2023/10/03 10:38:44;;;;;;;7.70;2.00;;;;;;;19.36;100.00;101384.72;5071604;28;20389;-73
2023/10/03 10:41:22;;;;;;;3.45;1.38;;;;;;;19.79;100.00;101394.97;5055386;28;20039;-73
2023/10/03 10:44:09;;;;;;;6.38;1.83;;;;;;;20.64;100.00;101398.00;5055388;28;20139;-73
2023/10/03 10:47:05;;;;;;;4.95;1.73;;;;;;;21.14;100.00;101412.53;5071862;28;20025;-73
2023/10/03 10:49:31;;;;;;;10.35;2.25;;;;;;;21.04;100.00;101397.53;5037481;28;20386;-73
2023/10/03 10:52:01;;;;;;;6.15;1.75;;;;;;;21.00;100.00;101404.50;5069266;28;20040;-74
2023/10/03 10:54:29;;;;;;;6.10;2.22;;;;;;;20.95;100.00;101411.72;5052742;28;20087;-74
2023/10/03 10:57:02;;;;;;;9.10;2.10;;;;;;;20.73;100.00;101414.09;5036687;28;20024;-74
2023/10/03 10:59:29;;;;;;;10.50;2.53;;;;;;;19.58;100.00;101422.56;5056625;28;20025;-73
2023/10/03 11:01:57;;;;;;;4.40;1.67;;;;;;;19.23;100.00;101425.69;5073418;28;20518;-73
2023/10/03 11:04:24;;;;;;;6.68;2.38;;;;;;;19.12;100.00;101424.50;5072892;28;20297;-72
2023/10/03 11:06:52;;;;;;;6.82;2.65;;;;;;;19.05;100.00;101416.34;5075202;28;20032;-73
2023/10/03 11:09:23;;;;;;;8.05;2.33;;;;;;;19.24;100.00;101430.94;5042572;28;20475;-73
2023/10/03 11:12:06;;;;;;;8.07;2.67;;;;;;;18.47;100.00;101432.63;5075360;28;20056;-72
2023/10/03 11:14:33;;;;;;;11.43;2.35;;;;;;;17.48;100.00;101436.06;5058603;28;20032;-72
2023/10/03 11:17:01;;;;;;;7.15;2.13;;;;;;;16.84;100.00;101427.25;5025105;28;20131;-72
2023/10/03 11:19:30;;;;;;;7.85;2.58;;;;;;;17.11;100.00;101430.09;5058584;28;20052;-72
2023/10/03 11:21:56;;;;;;;9.95;2.63;;;;;;;17.14;100.00;101435.09;5058756;28;20093;-72
2023/10/03 11:24:22;;;;;;;7.15;2.47;;;;;;;16.83;100.00;101433.72;5041396;28;20445;-72
2023/10/03 11:26:50;;;;;;;9.77;2.38;;;;;;;17.17;100.00;101436.59;5074961;28;20025;-74
2023/10/03 11:29:46;;;;;;;6.07;2.00;;;;;;;17.29;100.00;101438.53;5041724;28;20157;-74
2023/10/03 11:32:24;;;;;;;8.38;2.33;;;;;;;17.02;100.00;101443.00;5075067;28;20036;-75
2023/10/03 11:34:54;;;;;;;11.48;2.92;;;;;;;17.16;100.00;101451.22;5074849;28;20040;-73